createdAt,value
2018-09-13T00:02:23.896Z,8.87
2018-09-13T00:04:53.337Z,8.17
2018-09-13T00:07:22.659Z,6.90
2018-09-13T00:09:51.893Z,6.00
2018-09-13T00:12:21.180Z,5.80
2018-09-13T00:14:50.502Z,5.80
2018-09-13T00:17:19.801Z,6.50
2018-09-13T00:19:49.210Z,5.73
2018-09-13T00:22:18.422Z,5.63
2018-09-13T00:24:47.770Z,4.90
2018-09-13T00:27:17.108Z,4.83
2018-09-13T00:29:46.298Z,3.93
2018-09-13T00:32:15.606Z,4.13
2018-09-13T00:34:45.109Z,4.30
2018-09-13T00:37:14.409Z,3.93
2018-09-13T00:39:43.914Z,3.47
2018-09-13T00:42:13.119Z,3.27
2018-09-13T00:44:42.443Z,3.93
2018-09-13T00:47:13.030Z,3.90
2018-09-13T00:49:43.302Z,4.17
2018-09-13T00:52:12.522Z,3.70
2018-09-13T00:54:41.971Z,4.03
2018-09-13T00:57:11.468Z,3.97
2018-09-13T00:59:40.665Z,4.20
2018-09-13T01:02:10.172Z,4.10
2018-09-13T01:04:39.580Z,3.97
2018-09-13T01:07:09.038Z,3.97
2018-09-13T01:09:38.479Z,4.30
2018-09-13T01:12:07.818Z,4.20
2018-09-13T01:14:37.084Z,4.40
2018-09-13T01:17:06.583Z,4.90
2018-09-13T01:19:36.088Z,4.73
2018-09-13T01:22:05.315Z,4.87
2018-09-13T01:24:34.685Z,4.30
2018-09-13T01:27:04.043Z,4.80
2018-09-13T01:29:33.534Z,4.60
2018-09-13T01:32:02.996Z,5.10
2018-09-13T01:34:32.293Z,5.10
2018-09-13T01:37:01.696Z,4.80
2018-09-13T01:39:31.199Z,4.90
2018-09-13T01:42:00.706Z,5.27
2018-09-13T01:44:29.967Z,5.47
2018-09-13T01:46:59.213Z,6.57
2018-09-13T01:49:28.528Z,7.00
2018-09-13T01:51:58.006Z,7.47
2018-09-13T01:54:27.409Z,8.57
2018-09-13T01:56:56.810Z,8.43
2018-09-13T01:59:26.336Z,8.73
2018-09-13T02:01:55.919Z,8.63
2018-09-13T02:04:25.242Z,9.03
2018-09-13T02:06:54.633Z,9.17
2018-09-13T02:09:23.924Z,9.13
2018-09-13T02:11:53.535Z,9.33
2018-09-13T02:14:23.250Z,10.00
2018-09-13T02:16:52.948Z,9.03
2018-09-13T02:19:22.351Z,9.17
2018-09-13T02:21:51.854Z,9.23
2018-09-13T02:24:21.256Z,9.10
2018-09-13T02:26:50.657Z,8.83
2018-09-13T02:29:20.060Z,8.57
2018-09-13T02:31:49.462Z,9.03
2018-09-13T02:34:18.763Z,9.30
2018-09-13T02:36:48.162Z,9.63
2018-09-13T02:39:17.567Z,9.63
2018-09-13T02:41:47.006Z,9.53
2018-09-13T02:44:16.370Z,8.83
2018-09-13T02:46:46.078Z,9.77
2018-09-13T02:49:15.343Z,10.00
2018-09-13T02:51:44.781Z,10.23
2018-09-13T02:54:14.111Z,10.40
2018-09-13T02:56:43.649Z,9.43
2018-09-13T02:59:13.090Z,9.90
2018-09-13T03:01:42.593Z,10.07
2018-09-13T03:04:12.057Z,9.90
2018-09-13T03:06:41.599Z,10.60
2018-09-13T03:09:12.690Z,9.87
2018-09-13T03:11:43.452Z,10.10
2018-09-13T03:14:12.812Z,9.90
2018-09-13T03:16:42.308Z,9.90
2018-09-13T03:19:11.535Z,9.43
2018-09-13T03:21:40.882Z,9.50
2018-09-13T03:24:10.282Z,9.63
2018-09-13T03:26:39.795Z,9.73
2018-09-13T03:29:09.294Z,10.00
2018-09-13T03:31:38.618Z,9.80
2018-09-13T03:34:08.121Z,10.27
2018-09-13T03:36:37.515Z,10.50
2018-09-13T03:39:09.691Z,9.73
2018-09-13T03:41:38.963Z,9.80
2018-09-13T03:44:08.321Z,9.77
2018-09-13T03:46:38.076Z,10.30
2018-09-13T03:49:07.477Z,9.80
2018-09-13T03:51:37.084Z,9.30
2018-09-13T03:54:06.593Z,9.93
2018-09-13T03:56:35.990Z,10.10
2018-09-13T03:59:05.247Z,9.03
2018-09-13T04:01:34.691Z,9.60
2018-09-13T04:04:03.994Z,9.03
2018-09-13T04:06:33.398Z,9.20
2018-09-13T04:09:02.827Z,8.93
2018-09-13T04:11:32.195Z,8.83
2018-09-13T04:14:02.104Z,8.93
2018-09-13T04:16:31.512Z,8.03
2018-09-13T04:19:00.915Z,8.47
2018-09-13T04:21:30.524Z,8.40
2018-09-13T04:23:59.922Z,8.43
2018-09-13T04:26:29.370Z,8.70
2018-09-13T04:28:58.548Z,8.40
2018-09-13T04:31:28.132Z,7.90
2018-09-13T04:33:57.336Z,8.23
2018-09-13T04:36:26.798Z,8.30
2018-09-13T04:38:56.036Z,8.03
2018-09-13T04:41:25.431Z,7.43
2018-09-13T04:43:54.674Z,7.37
2018-09-13T04:46:23.898Z,7.57
2018-09-13T04:48:53.107Z,7.50
2018-09-13T04:51:22.423Z,7.87
2018-09-13T04:53:51.607Z,7.60
2018-09-13T04:56:20.884Z,8.50
2018-09-13T04:58:50.083Z,7.63
2018-09-13T05:01:19.416Z,8.20
2018-09-13T05:03:48.815Z,7.77
2018-09-13T05:06:18.533Z,7.80
2018-09-13T05:08:47.760Z,7.93
2018-09-13T05:11:17.130Z,7.37
2018-09-13T05:13:46.447Z,7.47
2018-09-13T05:16:15.645Z,7.80
2018-09-13T05:18:44.924Z,7.87
2018-09-13T05:21:14.127Z,8.63
2018-09-13T05:23:43.523Z,7.97
2018-09-13T05:26:12.925Z,8.40
2018-09-13T05:28:42.183Z,8.27
2018-09-13T05:31:11.627Z,8.10
2018-09-13T05:33:40.810Z,8.50
2018-09-13T05:36:10.226Z,9.40
2018-09-13T05:38:39.455Z,9.37
2018-09-13T05:41:08.825Z,9.33
2018-09-13T05:43:38.142Z,9.40
2018-09-13T05:46:07.370Z,9.67
2018-09-13T05:48:37.031Z,10.63
2018-09-13T05:51:06.281Z,10.17
2018-09-13T05:53:35.733Z,9.90
2018-09-13T05:56:04.969Z,10.60
2018-09-13T05:58:34.434Z,10.73
2018-09-13T06:01:03.840Z,10.20
2018-09-13T06:03:33.240Z,11.20
2018-09-13T06:06:02.482Z,11.53
2018-09-13T06:08:31.837Z,12.60
2018-09-13T06:11:01.054Z,11.47
2018-09-13T06:13:30.393Z,11.70
2018-09-13T06:15:59.840Z,12.73
2018-09-13T06:18:29.244Z,12.90
2018-09-13T06:20:58.621Z,11.80
2018-09-13T06:23:28.146Z,12.77
2018-09-13T06:25:57.546Z,12.87
2018-09-13T06:28:26.950Z,13.17
2018-09-13T06:30:56.197Z,13.00
2018-09-13T06:33:25.551Z,14.37
2018-09-13T06:35:55.158Z,14.20
2018-09-13T06:38:24.669Z,14.10
2018-09-13T06:40:54.166Z,14.47
2018-09-13T06:43:23.567Z,13.47
2018-09-13T06:45:52.830Z,14.00
2018-09-13T06:48:22.240Z,13.53
2018-09-13T06:50:51.572Z,13.77
2018-09-13T06:53:20.831Z,13.93
2018-09-13T06:55:50.029Z,15.70
2018-09-13T06:58:19.255Z,14.17
2018-09-13T07:00:48.542Z,15.27
2018-09-13T07:03:17.757Z,13.80
2018-09-13T07:05:47.366Z,14.93
2018-09-13T07:08:16.702Z,14.60
2018-09-13T07:10:46.068Z,15.20
2018-09-13T07:13:15.437Z,14.20
2018-09-13T07:15:44.876Z,14.37
2018-09-13T07:18:14.169Z,14.50
2018-09-13T07:20:43.468Z,14.53
2018-09-13T07:23:12.815Z,14.17
2018-09-13T07:25:42.068Z,14.10
2018-09-13T07:28:11.657Z,14.87
2018-09-13T07:30:41.078Z,13.77
2018-09-13T07:33:10.582Z,13.10
2018-09-13T07:35:39.994Z,13.40
2018-09-13T07:38:09.489Z,12.93
2018-09-13T07:40:38.705Z,12.77
2018-09-13T07:43:08.031Z,12.80
2018-09-13T07:45:37.256Z,13.93
2018-09-13T07:48:06.540Z,14.03
2018-09-13T07:50:36.090Z,13.57
2018-09-13T07:53:05.338Z,13.63
2018-09-13T07:55:34.939Z,13.40
2018-09-13T07:58:04.256Z,14.27
2018-09-13T08:00:33.696Z,14.27
2018-09-13T08:03:03.303Z,15.57
2018-09-13T08:05:32.718Z,15.57
2018-09-13T08:08:02.106Z,17.33
2018-09-13T08:10:31.315Z,17.23
2018-09-13T08:13:01.015Z,19.03
2018-09-13T08:15:30.372Z,17.43
2018-09-13T08:17:59.719Z,17.87
2018-09-13T08:20:28.973Z,17.37
2018-09-13T08:22:58.520Z,17.00
2018-09-13T08:25:27.835Z,19.23
2018-09-13T08:27:57.326Z,18.67
2018-09-13T08:30:26.658Z,18.00
2018-09-13T08:32:56.096Z,19.60
2018-09-13T08:35:25.819Z,19.07
2018-09-13T08:37:55.350Z,18.60
2018-09-13T08:40:24.890Z,17.83
2018-09-13T08:42:54.406Z,19.23
2018-09-13T08:45:23.666Z,20.27
2018-09-13T08:47:53.361Z,20.07
2018-09-13T08:50:22.752Z,20.93
2018-09-13T08:52:52.166Z,20.73
2018-09-13T08:55:21.390Z,21.70
2018-09-13T08:57:50.622Z,21.17
2018-09-13T09:00:19.834Z,20.60
2018-09-13T09:02:49.122Z,21.10
2018-09-13T09:05:18.564Z,22.40
2018-09-13T09:07:47.938Z,21.63
2018-09-13T09:10:17.130Z,22.23
2018-09-13T09:12:46.443Z,21.60
2018-09-13T09:15:15.661Z,22.33
2018-09-13T09:17:45.054Z,20.87
2018-09-13T09:20:14.356Z,20.77
2018-09-13T09:22:43.756Z,22.23
2018-09-13T09:25:12.994Z,20.57
2018-09-13T09:27:42.458Z,21.53
2018-09-13T09:30:11.648Z,20.30
2018-09-13T09:32:41.057Z,21.20
2018-09-13T09:35:10.322Z,20.20
2018-09-13T09:37:39.542Z,20.10
2018-09-13T09:40:09.155Z,19.97
2018-09-13T09:42:38.512Z,19.17
2018-09-13T09:45:07.753Z,20.13
2018-09-13T09:47:37.271Z,20.67
2018-09-13T09:50:07.404Z,21.07
2018-09-13T09:52:36.787Z,21.90
2018-09-13T09:55:06.197Z,21.50
2018-09-13T09:57:35.692Z,20.67
2018-09-13T10:00:05.095Z,19.63
2018-09-13T10:02:34.294Z,20.47
2018-09-13T10:05:03.530Z,21.17
2018-09-13T10:07:33.094Z,19.97
2018-09-13T10:10:02.549Z,20.67
2018-09-13T10:12:31.956Z,19.73
2018-09-13T10:15:06.734Z,19.90
2018-09-13T10:17:41.227Z,19.53
2018-09-13T10:20:15.874Z,20.27
2018-09-13T10:22:50.435Z,19.90
2018-09-13T10:25:24.854Z,18.60
2018-09-13T10:27:59.644Z,19.30
2018-09-13T10:30:34.216Z,18.50
2018-09-13T10:33:08.810Z,18.40
2018-09-13T10:35:43.179Z,19.40
2018-09-13T10:38:18.039Z,19.13
2018-09-13T10:40:52.632Z,18.00
2018-09-13T10:43:27.493Z,18.60
2018-09-13T10:46:02.014Z,17.77
2018-09-13T10:48:32.751Z,17.07
2018-09-13T10:51:07.079Z,17.03
2018-09-13T10:53:41.022Z,17.20
2018-09-13T10:56:10.340Z,17.63
2018-09-13T10:58:39.634Z,17.80
2018-09-13T11:01:08.880Z,16.50
2018-09-13T11:03:38.327Z,17.73
2018-09-13T11:06:07.780Z,17.60
2018-09-13T11:08:37.180Z,17.73
2018-09-13T11:11:06.674Z,17.63
2018-09-13T11:13:41.206Z,17.97
2018-09-13T11:16:10.916Z,18.43
2018-09-13T11:18:40.162Z,18.80
2018-09-13T11:21:09.515Z,18.17
2018-09-13T11:23:39.020Z,19.27
2018-09-13T11:26:08.291Z,18.37
2018-09-13T11:28:37.926Z,17.40
2018-09-13T11:31:07.129Z,18.70
2018-09-13T11:33:36.466Z,18.90
2018-09-13T11:36:05.926Z,18.87
2018-09-13T11:38:35.179Z,18.80
2018-09-13T11:41:04.635Z,18.80
2018-09-13T11:43:33.762Z,19.07
2018-09-13T11:46:03.228Z,18.70
2018-09-13T11:48:32.529Z,18.83
2018-09-13T11:51:01.831Z,19.03
2018-09-13T11:53:31.229Z,17.90
2018-09-13T11:56:00.529Z,19.60
2018-09-13T11:58:29.777Z,18.03
2018-09-13T12:00:59.185Z,18.87
2018-09-13T12:03:28.478Z,18.40
2018-09-13T12:05:58.035Z,17.83
2018-09-13T12:08:27.738Z,18.40
2018-09-13T12:10:57.071Z,17.90
2018-09-13T12:13:26.307Z,18.30
2018-09-13T12:15:55.845Z,17.93
2018-09-13T12:18:25.582Z,18.00
2018-09-13T12:20:54.854Z,17.73
2018-09-13T12:23:24.462Z,19.80
2018-09-13T12:25:53.983Z,18.80
2018-09-13T12:28:23.553Z,18.73
2018-09-13T12:30:52.786Z,18.47
2018-09-13T12:33:22.164Z,17.50
2018-09-13T12:35:51.464Z,18.23
2018-09-13T12:38:20.975Z,18.37
2018-09-13T12:40:50.375Z,18.33
2018-09-13T12:43:19.779Z,18.53
2018-09-13T12:45:49.079Z,19.80
2018-09-13T12:48:18.582Z,18.63
2018-09-13T12:50:47.987Z,19.13
2018-09-13T12:53:17.418Z,20.20
2018-09-13T12:55:51.915Z,18.73
2018-09-13T12:58:21.182Z,19.53
2018-09-13T13:00:50.730Z,19.37
2018-09-13T13:03:20.325Z,18.63
2018-09-13T13:05:50.232Z,18.90
2018-09-13T13:08:19.840Z,19.27
2018-09-13T13:10:49.345Z,18.10
2018-09-13T13:13:18.849Z,18.40
2018-09-13T13:15:48.353Z,18.43
2018-09-13T13:18:17.831Z,18.23
2018-09-13T13:20:47.109Z,18.97
2018-09-13T13:23:16.665Z,18.30
2018-09-13T13:25:46.067Z,17.10
2018-09-13T13:28:15.331Z,18.17
2018-09-13T13:30:44.867Z,18.50
2018-09-13T13:33:14.190Z,17.90
2018-09-13T13:35:43.467Z,17.30
2018-09-13T13:38:12.790Z,19.10
2018-09-13T13:40:42.054Z,18.80
2018-09-13T13:43:11.390Z,18.13
2018-09-13T13:45:40.734Z,18.83
2018-09-13T13:48:10.398Z,19.63
2018-09-13T13:50:39.907Z,19.57
2018-09-13T13:53:09.494Z,19.53
2018-09-13T13:55:38.731Z,18.90
2018-09-13T13:58:08.495Z,19.80
2018-09-13T14:00:37.816Z,19.40
2018-09-13T14:03:07.502Z,18.97
2018-09-13T14:05:37.009Z,19.50
2018-09-13T14:08:06.529Z,20.13
2018-09-13T14:10:35.831Z,18.73
2018-09-13T14:13:05.120Z,18.77
2018-09-13T14:15:34.581Z,19.30
2018-09-13T14:18:03.918Z,19.73
2018-09-13T14:20:33.691Z,19.77
2018-09-13T14:23:03.462Z,19.53
2018-09-13T14:25:33.044Z,21.80
2018-09-13T14:28:02.654Z,21.13
2018-09-13T14:30:31.974Z,20.63
2018-09-13T14:33:01.237Z,20.47
2018-09-13T14:35:30.763Z,21.50
2018-09-13T14:38:00.360Z,21.50
2018-09-13T14:40:30.071Z,19.63
2018-09-13T14:43:00.557Z,19.97
2018-09-13T14:45:30.204Z,20.87
2018-09-13T14:48:00.224Z,20.23
2018-09-13T14:50:29.572Z,20.07
2018-09-13T14:52:59.024Z,20.67
2018-09-13T14:55:28.596Z,19.60
2018-09-13T14:57:58.254Z,19.70
2018-09-13T15:00:27.626Z,19.97
2018-09-13T15:02:57.145Z,20.07
2018-09-13T15:05:26.544Z,19.73
2018-09-13T15:07:56.075Z,19.87
2018-09-13T15:10:25.366Z,20.90
2018-09-13T15:12:54.658Z,22.27
2018-09-13T15:15:25.178Z,22.77
2018-09-13T15:17:54.682Z,21.57
2018-09-13T15:20:24.187Z,21.90
2018-09-13T15:22:53.560Z,20.43
2018-09-13T15:25:22.888Z,20.27
2018-09-13T15:27:52.196Z,19.07
2018-09-13T15:30:21.525Z,20.37
2018-09-13T15:32:51.116Z,20.70
2018-09-13T15:35:20.778Z,20.17
2018-09-13T15:37:50.418Z,19.90
2018-09-13T15:40:19.915Z,19.90
2018-09-13T15:42:49.425Z,20.00
2018-09-13T15:45:19.027Z,18.57
2018-09-13T15:47:48.383Z,19.07
2018-09-13T15:50:17.683Z,19.07
2018-09-13T15:52:47.018Z,19.03
2018-09-13T15:55:16.530Z,19.50
2018-09-13T15:57:45.888Z,19.37
2018-09-13T16:00:15.340Z,19.63
2018-09-13T16:02:44.840Z,19.17
2018-09-13T16:05:14.207Z,18.87
2018-09-13T16:07:43.543Z,19.37
2018-09-13T16:10:13.352Z,17.43
2018-09-13T16:12:42.892Z,19.90
2018-09-13T16:15:12.191Z,19.97
2018-09-13T16:17:41.687Z,19.23
2018-09-13T16:20:11.268Z,19.53
2018-09-13T16:22:41.797Z,19.87
2018-09-13T16:25:11.302Z,18.23
2018-09-13T16:27:40.807Z,19.53
2018-09-13T16:30:10.119Z,20.20
2018-09-13T16:32:40.631Z,19.53
2018-09-13T16:35:10.096Z,19.63
2018-09-13T16:37:44.967Z,18.80
2018-09-13T16:40:19.692Z,19.63
2018-09-13T16:42:54.720Z,19.33
2018-09-13T16:45:28.740Z,18.47
2018-09-13T16:47:59.426Z,19.30
2018-09-13T16:50:28.911Z,19.23
2018-09-13T16:52:58.341Z,19.93
2018-09-13T16:55:27.880Z,19.57
2018-09-13T16:57:57.398Z,19.60
2018-09-13T17:00:27.331Z,20.77
2018-09-13T17:02:56.781Z,20.57
2018-09-13T17:05:26.059Z,21.87
2018-09-13T17:07:55.606Z,20.17
2018-09-13T17:10:25.011Z,20.70
2018-09-13T17:12:54.454Z,21.63
2018-09-13T17:15:24.222Z,22.77
2018-09-13T17:17:54.118Z,22.03
2018-09-13T17:20:23.884Z,22.37
2018-09-13T17:22:53.330Z,22.40
2018-09-13T17:25:22.853Z,22.87
2018-09-13T17:27:52.370Z,22.83
2018-09-13T17:30:21.863Z,21.93
2018-09-13T17:32:51.271Z,22.17
2018-09-13T17:35:21.415Z,22.37
2018-09-13T17:37:50.706Z,22.30
2018-09-13T17:40:20.159Z,21.33
2018-09-13T17:42:49.727Z,23.37
2018-09-13T17:45:19.299Z,22.43
2018-09-13T17:47:48.802Z,23.53
2018-09-13T17:50:18.241Z,23.23
2018-09-13T17:52:47.813Z,23.07
2018-09-13T17:55:18.034Z,23.50
2018-09-13T17:57:47.639Z,22.77
2018-09-13T18:00:17.172Z,23.43
2018-09-13T18:02:46.745Z,22.57
2018-09-13T18:05:16.257Z,22.83
2018-09-13T18:07:45.810Z,21.83
2018-09-13T18:10:15.572Z,22.33
2018-09-13T18:12:45.921Z,22.87
2018-09-13T18:15:15.453Z,21.80
2018-09-13T18:17:45.509Z,22.00
2018-09-13T18:20:15.262Z,22.13
2018-09-13T18:22:44.832Z,22.07
2018-09-13T18:25:14.553Z,21.93
2018-09-13T18:27:44.529Z,22.07
2018-09-13T18:30:14.356Z,22.10
2018-09-13T18:32:43.857Z,21.27
2018-09-13T18:35:13.426Z,21.77
2018-09-13T18:37:42.843Z,21.47
2018-09-13T18:40:12.446Z,21.57
2018-09-13T18:42:41.923Z,21.40
2018-09-13T18:45:11.397Z,21.90
2018-09-13T18:47:41.226Z,22.27
2018-09-13T18:50:10.740Z,20.90
2018-09-13T18:52:40.584Z,21.37
2018-09-13T18:55:10.659Z,22.13
2018-09-13T18:57:40.130Z,22.17
2018-09-13T19:00:10.130Z,21.77
2018-09-13T19:02:39.568Z,23.90
2018-09-13T19:05:09.207Z,22.83
2018-09-13T19:07:38.540Z,23.50
2018-09-13T19:10:08.126Z,24.83
2018-09-13T19:12:37.619Z,25.53
2018-09-13T19:15:07.259Z,24.10
2018-09-13T19:17:36.823Z,23.40
2018-09-13T19:20:06.994Z,23.50
2018-09-13T19:22:36.586Z,23.67
2018-09-13T19:25:06.650Z,23.97
2018-09-13T19:27:36.566Z,24.27
2018-09-13T19:30:06.607Z,24.07
2018-09-13T19:32:36.314Z,24.83
2018-09-13T19:35:06.276Z,25.50
2018-09-13T19:37:36.279Z,26.17
2018-09-13T19:40:06.726Z,27.50
2018-09-13T19:42:36.698Z,27.50
2018-09-13T19:45:07.102Z,26.80
2018-09-13T19:47:36.745Z,26.50
2018-09-13T19:50:06.810Z,26.57
2018-09-13T19:52:36.288Z,27.07
2018-09-13T19:55:06.471Z,26.10
2018-09-13T19:57:35.886Z,25.97
2018-09-13T20:00:05.893Z,26.63
2018-09-13T20:02:35.455Z,25.20
2018-09-13T20:05:05.113Z,26.77
2018-09-13T20:07:34.495Z,25.87
2018-09-13T20:10:04.069Z,26.80
2018-09-13T20:12:33.529Z,26.37
2018-09-13T20:15:03.077Z,27.70
2018-09-13T20:17:32.401Z,25.90
2018-09-13T20:20:01.984Z,25.10
2018-09-13T20:22:31.281Z,27.20
2018-09-13T20:25:00.518Z,26.63
2018-09-13T20:27:29.787Z,26.73
2018-09-13T20:29:59.201Z,27.77
2018-09-13T20:32:28.481Z,27.50
2018-09-13T20:34:57.985Z,28.37
2018-09-13T20:37:27.495Z,26.93
2018-09-13T20:39:56.892Z,27.27
2018-09-13T20:42:26.259Z,28.70
2018-09-13T20:44:55.587Z,27.13
2018-09-13T20:47:24.995Z,27.90
2018-09-13T20:49:54.238Z,26.80
2018-09-13T20:52:23.799Z,27.67
2018-09-13T20:54:53.155Z,27.73
2018-09-13T20:57:22.541Z,23.30
2018-09-13T20:59:51.749Z,18.00
2018-09-13T21:02:21.303Z,13.00
2018-09-13T21:04:50.575Z,11.90
2018-09-13T21:07:19.871Z,10.80
2018-09-13T21:09:49.199Z,9.20
2018-09-13T21:12:18.708Z,8.50
2018-09-13T21:14:48.211Z,7.10
2018-09-13T21:17:17.434Z,7.07
2018-09-13T21:19:47.013Z,7.30
2018-09-13T21:22:16.267Z,7.30
2018-09-13T21:24:45.573Z,7.13
2018-09-13T21:27:15.222Z,7.77
2018-09-13T21:29:44.545Z,7.50
2018-09-13T21:32:13.751Z,7.23
2018-09-13T21:34:43.050Z,7.07
2018-09-13T21:37:12.318Z,7.50
2018-09-13T21:39:41.788Z,7.27
2018-09-13T21:42:11.274Z,7.83
2018-09-13T21:44:40.788Z,8.00
2018-09-13T21:47:10.449Z,6.80
2018-09-13T21:49:39.941Z,7.33
2018-09-13T21:52:09.223Z,7.30
2018-09-13T21:54:38.493Z,7.27
2018-09-13T21:57:07.942Z,6.70
2018-09-13T21:59:37.337Z,6.33
2018-09-13T22:02:07.489Z,7.10
2018-09-13T22:04:36.694Z,7.20
2018-09-13T22:07:05.970Z,6.87
2018-09-13T22:09:35.466Z,6.80
2018-09-13T22:12:05.361Z,6.43
2018-09-13T22:14:34.664Z,7.40
2018-09-13T22:17:04.075Z,6.57
2018-09-13T22:19:33.342Z,7.50
2018-09-13T22:22:02.661Z,6.80
2018-09-13T22:24:31.939Z,6.87
2018-09-13T22:27:01.380Z,6.97
2018-09-13T22:29:30.987Z,6.93
2018-09-13T22:32:00.492Z,7.63
2018-09-13T22:34:30.099Z,7.70
2018-09-13T22:36:59.399Z,6.77
2018-09-13T22:39:28.659Z,6.63
2018-09-13T22:41:57.906Z,6.63
2018-09-13T22:44:27.198Z,5.63
2018-09-13T22:46:56.550Z,5.90
2018-09-13T22:49:25.749Z,6.40
2018-09-13T22:51:55.034Z,6.37
2018-09-13T22:54:24.272Z,6.37
2018-09-13T22:56:53.638Z,5.90
2018-09-13T22:59:22.881Z,6.20
2018-09-13T23:01:52.368Z,5.67
2018-09-13T23:04:21.715Z,6.23
2018-09-13T23:06:50.996Z,6.83
2018-09-13T23:09:20.330Z,6.17
2018-09-13T23:11:49.595Z,6.30
2018-09-13T23:14:18.926Z,5.83
2018-09-13T23:16:49.581Z,6.63
2018-09-13T23:19:17.500Z,6.43
2018-09-13T23:21:46.795Z,6.63
2018-09-13T23:24:16.397Z,6.80
2018-09-13T23:26:45.674Z,7.30
2018-09-13T23:29:14.898Z,7.53
2018-09-13T23:31:44.234Z,6.97
2018-09-13T23:34:13.513Z,7.30
2018-09-13T23:36:42.824Z,7.50
2018-09-13T23:39:12.274Z,7.80
2018-09-13T23:41:42.108Z,8.13
2018-09-13T23:44:11.612Z,7.67
2018-09-13T23:46:40.916Z,7.60
2018-09-13T23:49:10.415Z,7.90
2018-09-13T23:51:39.703Z,7.73
2018-09-13T23:54:08.960Z,7.80
2018-09-13T23:56:38.239Z,7.33
2018-09-13T23:59:07.548Z,7.60
